createdAt,value
2023-10-11T00:01:15.603Z,100445.94
2023-10-11T00:03:30.245Z,100428.19
2023-10-11T00:05:41.515Z,100422.84
2023-10-11T00:07:46.283Z,100401.75
2023-10-11T00:09:53.585Z,100397.69
2023-10-11T00:11:59.990Z,100389.97
2023-10-11T00:14:04.054Z,100370.69
2023-10-11T00:16:12.760Z,100364.94
2023-10-11T00:18:18.684Z,100364.41
2023-10-11T00:20:30.516Z,100358.66
2023-10-11T00:22:35.183Z,100365.28
2023-10-11T00:24:39.439Z,100375.16
2023-10-11T00:27:04.121Z,100372.06
2023-10-11T00:29:10.891Z,100377.63
2023-10-11T00:31:19.253Z,100393.97
2023-10-11T00:33:35.217Z,100408.31
2023-10-11T00:35:49.457Z,100420.16
2023-10-11T00:37:55.093Z,100411.59
2023-10-11T00:40:00.080Z,100407.38
2023-10-11T00:42:06.196Z,100401.34
2023-10-11T00:44:11.085Z,100404.13
2023-10-11T00:46:15.756Z,100400.78
2023-10-11T00:48:21.035Z,100394.84
2023-10-11T00:50:25.852Z,100390.53
2023-10-11T00:52:31.664Z,100388.13
2023-10-11T00:54:36.883Z,100396.13
2023-10-11T00:56:45.472Z,100406.00
2023-10-11T00:58:53.639Z,100401.63
2023-10-11T01:00:56.994Z,100395.44
2023-10-11T01:03:02.179Z,100404.44
2023-10-11T01:05:08.546Z,100413.44
2023-10-11T01:07:13.590Z,100418.94
2023-10-11T01:09:19.681Z,100415.41
2023-10-11T01:11:26.377Z,100420.75
2023-10-11T01:13:30.944Z,100417.38
2023-10-11T01:15:37.074Z,100406.69
2023-10-11T01:17:42.047Z,100410.34
2023-10-11T01:19:46.152Z,100384.50
2023-10-11T01:21:55.364Z,100394.31
2023-10-11T01:23:59.745Z,100395.31
2023-10-11T01:26:11.184Z,100384.63
2023-10-11T01:28:14.271Z,100386.44
2023-10-11T01:30:18.526Z,100367.91
2023-10-11T01:32:21.643Z,100357.22
2023-10-11T01:34:28.826Z,100374.09
2023-10-11T01:36:33.774Z,100357.22
2023-10-11T01:38:47.920Z,100360.03
2023-10-11T01:40:57.149Z,100357.50
2023-10-11T01:43:02.058Z,100364.53
2023-10-11T01:45:09.788Z,100370.03
2023-10-11T01:47:17.861Z,100381.53
2023-10-11T01:49:22.682Z,100371.00
2023-10-11T01:51:28.897Z,100374.66
2023-10-11T01:53:34.110Z,100366.78
2023-10-11T01:55:41.702Z,100368.63
2023-10-11T01:57:50.352Z,100353.28
2023-10-11T01:59:55.056Z,100358.06
2023-10-11T02:02:04.947Z,100365.09
2023-10-11T02:04:12.661Z,100371.16
2023-10-11T02:06:16.888Z,100359.47
2023-10-11T02:08:21.483Z,100369.16
2023-10-11T02:10:28.423Z,100377.19
2023-10-11T02:12:37.122Z,100361.16
2023-10-11T02:14:41.967Z,100367.22
2023-10-11T02:16:46.140Z,100369.16
2023-10-11T02:18:53.063Z,100366.50
2023-10-11T02:20:58.374Z,100375.38
2023-10-11T02:23:04.413Z,100366.50
2023-10-11T02:25:09.754Z,100368.19
2023-10-11T02:27:19.522Z,100365.38
2023-10-11T02:29:27.039Z,100362.56
2023-10-11T02:31:35.481Z,100351.88
2023-10-11T02:33:40.684Z,100358.91
2023-10-11T02:35:55.085Z,100356.09
2023-10-11T02:38:00.923Z,100355.25
2023-10-11T02:40:09.248Z,100351.56
2023-10-11T02:42:21.231Z,100342.72
2023-10-11T02:44:25.868Z,100335.84
2023-10-11T02:46:34.341Z,100335.00
2023-10-11T02:48:39.279Z,100332.50
2023-10-11T02:50:47.644Z,100332.75
2023-10-11T02:53:00.222Z,100322.22
2023-10-11T02:55:12.380Z,100319.69
2023-10-11T02:57:21.352Z,100331.34
2023-10-11T02:59:27.296Z,100321.69
2023-10-11T03:01:32.901Z,100329.97
2023-10-11T03:03:40.192Z,100318.19
2023-10-11T03:05:45.060Z,100308.09
2023-10-11T03:07:48.276Z,100294.59
2023-10-11T03:09:56.046Z,100294.03
2023-10-11T03:12:07.460Z,100296.13
2023-10-11T03:14:14.006Z,100288.44
2023-10-11T03:16:20.583Z,100292.06
2023-10-11T03:18:27.146Z,100285.06
2023-10-11T03:20:34.001Z,100294.06
2023-10-11T03:22:37.563Z,100296.59
2023-10-11T03:24:43.001Z,100300.22
2023-10-11T03:26:50.038Z,100310.75
2023-10-11T03:28:59.587Z,100314.28
2023-10-11T03:31:04.136Z,100307.09
2023-10-11T03:33:09.608Z,100324.66
2023-10-11T03:35:17.863Z,100327.19
2023-10-11T03:37:22.529Z,100328.88
2023-10-11T03:39:33.359Z,100330.59
2023-10-11T03:41:37.340Z,100329.56
2023-10-11T03:43:42.649Z,100328.59
2023-10-11T03:45:51.627Z,100333.09
2023-10-11T03:47:56.129Z,100341.94
2023-10-11T03:50:02.016Z,100348.97
2023-10-11T03:52:06.098Z,100338.16
2023-10-11T03:54:10.631Z,100345.19
2023-10-11T03:56:14.734Z,100346.00
2023-10-11T03:58:40.512Z,100349.41
2023-10-11T04:00:49.178Z,100348.41
2023-10-11T04:02:58.665Z,100347.28
2023-10-11T04:05:05.583Z,100347.13
2023-10-11T04:07:08.629Z,100355.84
2023-10-11T04:09:24.168Z,100356.53
2023-10-11T04:11:47.358Z,100345.84
2023-10-11T04:13:52.036Z,100347.41
2023-10-11T04:16:00.436Z,100346.56
2023-10-11T04:18:16.063Z,100351.75
2023-10-11T04:20:31.425Z,100352.59
2023-10-11T04:22:36.462Z,100346.28
2023-10-11T04:24:40.479Z,100341.09
2023-10-11T04:26:54.997Z,100333.38
2023-10-11T04:28:59.534Z,100336.88
2023-10-11T04:31:17.415Z,100337.84
2023-10-11T04:33:22.233Z,100346.88
2023-10-11T04:35:27.351Z,100361.88
2023-10-11T04:37:44.687Z,100366.38
2023-10-11T04:39:53.325Z,100363.72
2023-10-11T04:41:59.518Z,100364.69
2023-10-11T04:44:14.541Z,100375.22
2023-10-11T04:46:19.858Z,100387.59
2023-10-11T04:48:32.440Z,100406.28
2023-10-11T04:50:43.404Z,100433.13
2023-10-11T04:52:50.471Z,100418.94
2023-10-11T04:54:58.104Z,100440.13
2023-10-11T04:57:08.402Z,100443.75
2023-10-11T04:59:17.999Z,100441.00
2023-10-11T05:01:24.138Z,100455.22
2023-10-11T05:03:31.569Z,100459.22
2023-10-11T05:05:36.303Z,100459.44
2023-10-11T05:07:44.552Z,100463.97
2023-10-11T05:10:06.818Z,100467.97
2023-10-11T05:12:11.954Z,100466.34
2023-10-11T05:14:31.991Z,100468.94
2023-10-11T05:16:39.574Z,100481.78
2023-10-11T05:18:43.865Z,100479.50
2023-10-11T05:20:59.440Z,100485.94
2023-10-11T05:23:07.905Z,100504.69
2023-10-11T05:25:37.104Z,100508.31
2023-10-11T05:27:49.240Z,100498.72
2023-10-11T05:30:08.255Z,100511.22
2023-10-11T05:32:26.711Z,100500.69
2023-10-11T05:37:27.514Z,100520.91
2023-10-11T05:39:48.543Z,100520.34
2023-10-11T05:42:10.470Z,100525.19
2023-10-11T05:44:32.356Z,100528.19
2023-10-11T05:46:54.433Z,100532.31
2023-10-11T05:49:16.563Z,100535.25
2023-10-11T05:51:21.971Z,100525.81
2023-10-11T05:53:29.544Z,100533.19
2023-10-11T05:55:34.683Z,100525.34
2023-10-11T05:57:39.735Z,100533.56
2023-10-11T05:59:45.026Z,100535.75
2023-10-11T06:01:49.736Z,100533.34
2023-10-11T06:03:57.086Z,100538.88
2023-10-11T06:06:12.667Z,100539.13
2023-10-11T06:08:18.314Z,100530.56
2023-10-11T06:10:31.000Z,100538.06
2023-10-11T06:12:35.440Z,100532.38
2023-10-11T06:14:39.842Z,100521.38
2023-10-11T06:16:44.920Z,100519.06
2023-10-11T06:19:05.604Z,100522.06
2023-10-11T06:21:20.574Z,100522.44
2023-10-11T06:23:25.429Z,100523.66
2023-10-11T06:25:45.125Z,100522.19
2023-10-11T06:28:06.604Z,100531.38
2023-10-11T06:30:11.569Z,100542.00
2023-10-11T06:34:27.631Z,100542.13
2023-10-11T06:36:31.574Z,100548.53
2023-10-11T06:38:43.137Z,100546.94
2023-10-11T06:40:55.428Z,100548.16
2023-10-11T06:42:58.980Z,100540.50
2023-10-11T06:45:06.927Z,100544.28
2023-10-11T06:47:12.633Z,100548.97
2023-10-11T06:49:16.565Z,100547.50
2023-10-11T06:51:20.599Z,100551.56
2023-10-11T06:53:24.278Z,100553.47
2023-10-11T06:55:27.273Z,100558.78
2023-10-11T06:57:33.158Z,100566.75
2023-10-11T06:59:35.651Z,100568.56
2023-10-11T07:01:42.697Z,100573.75
2023-10-11T07:03:48.674Z,100575.66
2023-10-11T07:05:58.546Z,100584.72
2023-10-11T07:08:06.357Z,100589.06
2023-10-11T07:10:29.682Z,100599.09
2023-10-11T07:12:40.911Z,100605.59
2023-10-11T07:14:44.729Z,100611.34
2023-10-11T07:16:49.054Z,100608.41
2023-10-11T07:18:56.126Z,100613.31
2023-10-11T07:21:08.925Z,100623.53
2023-10-11T07:23:20.195Z,100624.72
2023-10-11T07:25:37.583Z,100618.81
2023-10-11T07:27:42.998Z,100621.53
2023-10-11T07:29:50.822Z,100628.03
2023-10-11T07:31:55.017Z,100625.84
2023-10-11T07:33:57.997Z,100625.53
2023-10-11T07:36:02.008Z,100624.19
2023-10-11T07:38:09.183Z,100625.47
2023-10-11T07:40:22.229Z,100629.38
2023-10-11T07:42:31.016Z,100630.53
2023-10-11T07:44:38.702Z,100631.09
2023-10-11T07:46:42.812Z,100643.00
2023-10-11T07:48:49.169Z,100645.00
2023-10-11T07:50:53.319Z,100646.81
2023-10-11T07:52:58.458Z,100650.19
2023-10-11T07:55:02.138Z,100653.59
2023-10-11T07:57:05.593Z,100645.53
2023-10-11T07:59:10.407Z,100641.94
2023-10-11T08:01:26.782Z,100651.38
2023-10-11T08:03:36.354Z,100653.69
2023-10-11T08:05:48.925Z,100652.63
2023-10-11T08:07:52.723Z,100645.22
2023-10-11T08:09:57.340Z,100654.66
2023-10-11T08:12:01.141Z,100654.53
2023-10-11T08:14:15.193Z,100649.13
2023-10-11T08:16:20.523Z,100652.38
2023-10-11T08:18:23.691Z,100663.00
2023-10-11T08:20:29.788Z,100658.78
2023-10-11T08:22:33.869Z,100662.28
2023-10-11T08:24:50.419Z,100652.50
2023-10-11T08:26:55.230Z,100656.97
2023-10-11T08:29:07.066Z,100656.84
2023-10-11T08:31:12.872Z,100651.53
2023-10-11T08:33:17.993Z,100645.28
2023-10-11T08:35:27.858Z,100649.53
2023-10-11T08:37:33.527Z,100658.22
2023-10-11T08:39:37.663Z,100651.84
2023-10-11T08:41:45.505Z,100654.38
2023-10-11T08:43:51.463Z,100664.06
2023-10-11T08:46:02.607Z,100668.28
2023-10-11T08:48:07.833Z,100662.03
2023-10-11T08:50:19.352Z,100668.06
2023-10-11T08:52:26.172Z,100669.78
2023-10-11T08:54:31.662Z,100668.81
2023-10-11T08:56:35.610Z,100677.75
2023-10-11T08:58:39.967Z,100680.38
2023-10-11T09:00:49.134Z,100691.97
2023-10-11T09:02:54.153Z,100680.63
2023-10-11T09:04:59.576Z,100695.78
2023-10-11T09:07:05.289Z,100683.47
2023-10-11T09:09:16.159Z,100691.53
2023-10-11T09:11:30.095Z,100696.00
2023-10-11T09:13:38.119Z,100690.69
2023-10-11T09:15:44.160Z,100681.97
2023-10-11T09:17:52.149Z,100681.97
2023-10-11T09:19:59.538Z,100678.50
2023-10-11T09:22:06.086Z,100674.03
2023-10-11T09:24:25.993Z,100669.81
2023-10-11T09:28:58.105Z,100669.91
2023-10-11T09:31:13.647Z,100663.88
2023-10-11T09:33:20.405Z,100663.97
2023-10-11T09:35:29.237Z,100662.28
2023-10-11T09:37:35.852Z,100669.47
2023-10-11T09:39:39.902Z,100665.25
2023-10-11T09:41:54.149Z,100668.75
2023-10-11T09:43:58.724Z,100667.81
2023-10-11T09:46:05.013Z,100673.94
2023-10-11T09:48:10.835Z,100676.72
2023-10-11T09:50:17.240Z,100673.22
2023-10-11T09:52:25.396Z,100675.94
2023-10-11T09:54:29.820Z,100673.22
2023-10-11T09:56:45.183Z,100676.72
2023-10-11T09:58:58.069Z,100674.16
2023-10-11T10:01:12.810Z,100674.16
2023-10-11T10:03:16.766Z,100672.47
2023-10-11T10:05:27.546Z,100673.41
2023-10-11T10:07:34.368Z,100667.28
2023-10-11T10:09:56.428Z,100673.53
2023-10-11T10:12:23.477Z,100669.09
2023-10-11T10:14:34.810Z,100668.09
2023-10-11T10:16:56.378Z,100676.06
2023-10-11T10:19:27.153Z,100672.69
2023-10-11T10:22:17.562Z,100675.56
2023-10-11T10:24:33.391Z,100672.03
2023-10-11T10:26:42.883Z,100672.03
2023-10-11T10:28:59.081Z,100678.28
2023-10-11T10:31:11.279Z,100675.88
2023-10-11T10:33:24.055Z,100669.72
2023-10-11T10:35:39.459Z,100670.56
2023-10-11T10:37:58.018Z,100671.44
2023-10-11T10:40:20.194Z,100677.56
2023-10-11T10:42:28.974Z,100680.22
2023-10-11T10:44:33.656Z,100674.91
2023-10-11T10:46:39.190Z,100686.25
2023-10-11T10:48:42.600Z,100681.81
2023-10-11T10:50:57.893Z,100678.28
2023-10-11T10:53:08.761Z,100680.22
2023-10-11T10:55:16.286Z,100682.03
2023-10-11T10:57:25.472Z,100689.13
2023-10-11T10:59:31.547Z,100688.28
2023-10-11T11:01:35.536Z,100683.81
2023-10-11T11:04:00.822Z,100690.72
2023-10-11T11:06:05.193Z,100680.09
2023-10-11T11:08:17.716Z,100686.06
2023-10-11T11:10:24.518Z,100682.25
2023-10-11T11:12:31.070Z,100689.84
2023-10-11T11:14:33.979Z,100681.69
2023-10-11T11:16:40.991Z,100680.72
2023-10-11T11:18:45.529Z,100696.44
2023-10-11T11:20:52.843Z,100690.16
2023-10-11T11:22:56.782Z,100695.47
2023-10-11T11:25:18.809Z,100685.63
2023-10-11T11:27:27.335Z,100677.53
2023-10-11T11:29:33.907Z,100674.78
2023-10-11T11:31:53.949Z,100672.97
2023-10-11T11:34:12.658Z,100680.63
2023-10-11T11:36:31.837Z,100683.88
2023-10-11T11:38:38.640Z,100673.16
2023-10-11T11:40:48.497Z,100677.50
2023-10-11T11:42:52.385Z,100679.94
2023-10-11T11:44:57.082Z,100687.91
2023-10-11T11:47:06.164Z,100686.13
2023-10-11T11:49:10.699Z,100694.91
2023-10-11T11:51:16.381Z,100689.59
2023-10-11T11:53:20.295Z,100682.59
2023-10-11T11:55:24.115Z,100684.28
2023-10-11T11:57:31.637Z,100693.22
2023-10-11T11:59:35.812Z,100688.78
2023-10-11T12:01:39.875Z,100690.47
2023-10-11T12:03:44.527Z,100694.91
2023-10-11T12:05:47.284Z,100695.03
2023-10-11T12:07:52.907Z,100693.22
2023-10-11T12:12:06.599Z,100696.84
2023-10-11T12:14:12.091Z,100691.72
2023-10-11T12:16:15.937Z,100697.25
2023-10-11T12:18:21.491Z,100695.78
2023-10-11T12:20:35.648Z,100692.41
2023-10-11T12:22:44.132Z,100693.47
2023-10-11T12:24:48.862Z,100686.47
2023-10-11T12:26:52.483Z,100678.50
2023-10-11T12:28:56.282Z,100683.91
2023-10-11T12:31:02.043Z,100687.53
2023-10-11T12:33:08.525Z,100681.97
2023-10-11T12:35:15.098Z,100696.84
2023-10-11T12:37:19.485Z,100693.25
2023-10-11T12:39:26.899Z,100691.88
2023-10-11T12:41:31.538Z,100687.28
2023-10-11T12:43:35.481Z,100684.75
2023-10-11T12:45:43.846Z,100682.22
2023-10-11T12:47:48.071Z,100678.72
2023-10-11T12:49:51.922Z,100675.19
2023-10-11T12:51:57.433Z,100687.53
2023-10-11T12:54:01.631Z,100692.72
2023-10-11T12:56:05.761Z,100694.53
2023-10-11T12:58:08.540Z,100696.22
2023-10-11T13:00:32.276Z,100692.81
2023-10-11T13:02:39.234Z,100697.28
2023-10-11T13:04:49.042Z,100696.34
2023-10-11T13:06:53.298Z,100696.22
2023-10-11T13:09:00.749Z,100697.91
2023-10-11T13:11:06.834Z,100697.91
2023-10-11T13:13:11.194Z,100693.59
2023-10-11T13:15:20.612Z,100694.31
2023-10-11T13:17:29.655Z,100700.56
2023-10-11T13:19:34.211Z,100706.97
2023-10-11T13:21:37.984Z,100701.00
2023-10-11T13:23:45.347Z,100705.78
2023-10-11T13:25:57.074Z,100700.16
2023-10-11T13:28:04.700Z,100694.31
2023-10-11T13:30:12.172Z,100692.00
2023-10-11T13:32:18.514Z,100684.25
2023-10-11T13:34:23.130Z,100694.97
2023-10-11T13:36:34.870Z,100697.63
2023-10-11T13:38:43.242Z,100695.94
2023-10-11T13:40:47.843Z,100695.94
2023-10-11T13:42:53.580Z,100692.31
2023-10-11T13:44:58.565Z,100699.19
2023-10-11T13:47:02.626Z,100700.28
2023-10-11T13:49:25.593Z,100706.44
2023-10-11T13:51:34.116Z,100714.38
2023-10-11T13:53:42.688Z,100711.72
2023-10-11T13:55:52.116Z,100698.34
2023-10-11T13:57:58.578Z,100692.09
2023-10-11T14:00:22.134Z,100697.31
2023-10-11T14:02:38.129Z,100690.06
2023-10-11T14:04:58.562Z,100692.53
2023-10-11T14:07:15.845Z,100682.66
2023-10-11T14:09:20.029Z,100689.44
2023-10-11T14:11:25.056Z,100685.84
2023-10-11T14:13:31.189Z,100688.16
2023-10-11T14:15:37.373Z,100699.41
2023-10-11T14:17:42.746Z,100690.50
2023-10-11T14:19:47.551Z,100693.06
2023-10-11T14:21:53.560Z,100692.09
2023-10-11T14:24:00.136Z,100691.13
2023-10-11T14:26:06.265Z,100686.47
2023-10-11T14:28:15.642Z,100690.69
2023-10-11T14:30:21.986Z,100679.88
2023-10-11T14:32:26.584Z,100681.56
2023-10-11T14:34:31.898Z,100674.31
2023-10-11T14:36:36.234Z,100685.81
2023-10-11T14:38:40.007Z,100684.22
2023-10-11T14:40:44.535Z,100694.09
2023-10-11T14:42:50.531Z,100694.09
2023-10-11T14:44:54.560Z,100695.91
2023-10-11T14:46:58.919Z,100699.63
2023-10-11T14:49:03.312Z,100704.91
2023-10-11T14:51:12.632Z,100706.50
2023-10-11T14:53:17.707Z,100702.56
2023-10-11T14:55:22.966Z,100691.97
2023-10-11T14:57:27.471Z,100681.63
2023-10-11T14:59:36.405Z,100685.78
2023-10-11T15:01:41.258Z,100686.31
2023-10-11T15:03:49.127Z,100690.44
2023-10-11T15:05:51.981Z,100690.19
2023-10-11T15:07:56.112Z,100690.84
2023-10-11T15:09:59.897Z,100697.63
2023-10-11T15:12:03.538Z,100693.16
2023-10-11T15:14:09.551Z,100687.66
2023-10-11T15:16:15.824Z,100674.00
2023-10-11T15:18:24.049Z,100673.78
2023-10-11T15:20:31.549Z,100667.16
2023-10-11T15:22:35.339Z,100671.28
2023-10-11T15:24:40.853Z,100666.72
2023-10-11T15:26:47.208Z,100662.06
2023-10-11T15:28:50.831Z,100671.63
2023-10-11T15:30:55.279Z,100677.78
2023-10-11T15:32:59.101Z,100671.53
2023-10-11T15:35:06.239Z,100667.88
2023-10-11T15:37:11.471Z,100661.63
2023-10-11T15:39:17.681Z,100665.09
2023-10-11T15:41:21.291Z,100659.91
2023-10-11T15:43:24.516Z,100656.41
2023-10-11T15:45:28.944Z,100654.72
2023-10-11T15:47:36.709Z,100668.88
2023-10-11T15:49:41.758Z,100682.16
2023-10-11T15:51:45.495Z,100681.91
2023-10-11T15:53:51.386Z,100679.97
2023-10-11T15:55:54.558Z,100675.53
2023-10-11T15:57:58.222Z,100671.88
2023-10-11T16:00:02.814Z,100684.09
2023-10-11T16:02:16.095Z,100680.72
2023-10-11T16:04:20.746Z,100676.25
2023-10-11T16:06:26.673Z,100677.13
2023-10-11T16:08:32.135Z,100688.69
2023-10-11T16:10:37.462Z,100687.84
2023-10-11T16:12:44.385Z,100695.81
2023-10-11T16:14:49.514Z,100710.78
2023-10-11T16:16:57.556Z,100711.97
2023-10-11T16:19:01.878Z,100718.25
2023-10-11T16:21:06.261Z,100718.38
2023-10-11T16:23:10.896Z,100716.69
2023-10-11T16:25:14.103Z,100710.50
2023-10-11T16:27:19.160Z,100727.41
2023-10-11T16:29:23.590Z,100722.09
2023-10-11T16:31:26.557Z,100715.81
2023-10-11T16:33:31.358Z,100695.31
2023-10-11T16:35:34.959Z,100701.22
2023-10-11T16:37:38.598Z,100708.38
2023-10-11T16:39:45.637Z,100712.84
2023-10-11T16:41:49.410Z,100706.91
2023-10-11T16:43:56.098Z,100714.22
2023-10-11T16:46:00.350Z,100700.94
2023-10-11T16:48:06.265Z,100711.56
2023-10-11T16:50:11.611Z,100716.97
2023-10-11T16:52:15.177Z,100719.88
2023-10-11T16:54:19.223Z,100717.31
2023-10-11T16:56:24.952Z,100712.97
2023-10-11T16:58:28.803Z,100714.88
2023-10-11T17:00:35.031Z,100720.28
2023-10-11T17:02:38.387Z,100720.63
2023-10-11T17:04:42.977Z,100724.38
2023-10-11T17:06:47.398Z,100723.63
2023-10-11T17:08:50.958Z,100725.53
2023-10-11T17:10:54.724Z,100731.91
2023-10-11T17:12:58.267Z,100742.88
2023-10-11T17:15:02.573Z,100734.38
2023-10-11T17:17:07.627Z,100732.91
2023-10-11T17:19:12.647Z,100733.31
2023-10-11T17:21:17.886Z,100738.88
2023-10-11T17:23:22.089Z,100744.41
2023-10-11T17:25:27.067Z,100745.56
2023-10-11T17:27:33.561Z,100746.63
2023-10-11T17:29:37.674Z,100745.03
2023-10-11T17:31:42.828Z,100751.28
2023-10-11T17:33:47.921Z,100756.72
2023-10-11T17:35:51.742Z,100766.50
2023-10-11T17:37:55.461Z,100770.97
2023-10-11T17:39:59.344Z,100780.81
2023-10-11T17:42:06.770Z,100780.94
2023-10-11T17:44:10.682Z,100789.00
2023-10-11T17:46:14.329Z,100792.59
2023-10-11T17:48:18.408Z,100795.25
2023-10-11T17:50:24.225Z,100790.06
2023-10-11T17:52:29.429Z,100786.47
2023-10-11T17:54:33.617Z,100794.41
2023-10-11T17:56:37.325Z,100796.19
2023-10-11T17:58:41.041Z,100804.28
2023-10-11T18:00:45.640Z,100803.53
2023-10-11T18:02:50.064Z,100798.31
2023-10-11T18:04:53.853Z,100805.53
2023-10-11T18:06:59.432Z,100799.41
2023-10-11T18:09:03.119Z,100808.31
2023-10-11T18:11:07.399Z,100801.28
2023-10-11T18:13:11.170Z,100807.53
2023-10-11T18:15:14.904Z,100810.19
2023-10-11T18:17:18.872Z,100816.47
2023-10-11T18:19:25.849Z,100817.44
2023-10-11T18:21:33.726Z,100815.72
2023-10-11T18:23:39.534Z,100823.69
2023-10-11T18:25:43.376Z,100818.47
2023-10-11T18:27:47.839Z,100807.03
2023-10-11T18:29:51.532Z,100810.63
2023-10-11T18:31:55.214Z,100815.94
2023-10-11T18:33:58.869Z,100812.53
2023-10-11T18:36:02.531Z,100816.88
2023-10-11T18:38:06.568Z,100812.63
2023-10-11T18:40:21.429Z,100812.00
2023-10-11T18:42:25.315Z,100815.72
2023-10-11T18:44:29.189Z,100816.97
2023-10-11T18:46:33.147Z,100824.28
2023-10-11T18:48:37.127Z,100822.91
2023-10-11T18:50:43.211Z,100814.38
2023-10-11T18:52:47.094Z,100816.50
2023-10-11T18:54:51.238Z,100820.41
2023-10-11T18:56:56.379Z,100825.25
2023-10-11T18:59:01.522Z,100823.75
2023-10-11T19:01:07.431Z,100831.16
2023-10-11T19:03:11.684Z,100821.06
2023-10-11T19:05:20.527Z,100827.63
2023-10-11T19:07:24.505Z,100820.22
2023-10-11T19:09:28.469Z,100825.91
2023-10-11T19:11:34.129Z,100818.34
2023-10-11T19:13:40.125Z,100828.38
2023-10-11T19:15:44.497Z,100817.22
2023-10-11T19:17:51.052Z,100829.06
2023-10-11T19:19:53.791Z,100832.00
2023-10-11T19:21:57.465Z,100828.78
2023-10-11T19:24:05.163Z,100831.66
2023-10-11T19:26:08.903Z,100832.78
2023-10-11T19:28:12.724Z,100844.50
2023-10-11T19:30:18.777Z,100834.19
2023-10-11T19:32:22.839Z,100835.41
2023-10-11T19:34:26.657Z,100832.28
2023-10-11T19:36:31.775Z,100836.06
2023-10-11T19:38:35.552Z,100835.50
2023-10-11T19:40:40.062Z,100838.25
2023-10-11T19:42:45.958Z,100835.78
2023-10-11T19:44:50.335Z,100835.22
2023-10-11T19:46:58.871Z,100845.22
2023-10-11T19:49:02.742Z,100851.63
2023-10-11T19:51:08.599Z,100857.22
2023-10-11T19:53:12.789Z,100857.50
2023-10-11T19:55:19.284Z,100855.97
2023-10-11T19:57:26.901Z,100855.19
2023-10-11T19:59:31.556Z,100867.84
2023-10-11T20:01:34.304Z,100859.25
2023-10-11T20:03:40.283Z,100857.63
2023-10-11T20:05:44.895Z,100856.84
2023-10-11T20:07:49.624Z,100854.41
2023-10-11T20:09:53.879Z,100852.78
2023-10-11T20:11:56.460Z,100858.25
2023-10-11T20:14:00.474Z,100864.56
2023-10-11T20:16:04.828Z,100866.44
2023-10-11T20:18:08.998Z,100872.78
2023-10-11T20:20:16.979Z,100876.44
2023-10-11T20:22:21.224Z,100872.09
2023-10-11T20:24:24.956Z,100870.47
2023-10-11T20:26:30.560Z,100871.50
2023-10-11T20:28:34.154Z,100877.72
2023-10-11T20:30:42.024Z,100869.03
2023-10-11T20:32:47.650Z,100874.50
2023-10-11T20:34:51.522Z,100869.38
2023-10-11T20:37:01.221Z,100870.41
2023-10-11T20:39:09.927Z,100877.56
2023-10-11T20:41:14.184Z,100881.16
2023-10-11T20:43:18.643Z,100875.19
2023-10-11T20:45:23.916Z,100878.78
2023-10-11T20:47:30.180Z,100887.63
2023-10-11T20:49:33.924Z,100887.63
2023-10-11T20:51:38.592Z,100891.19
2023-10-11T20:53:44.279Z,100894.81
2023-10-11T20:55:49.398Z,100895.66
2023-10-11T20:57:57.773Z,100895.66
2023-10-11T21:00:01.520Z,100900.09
2023-10-11T21:02:04.295Z,100901.78
2023-10-11T21:04:08.047Z,100902.66
2023-10-11T21:06:14.426Z,100903.66
2023-10-11T21:08:19.203Z,100909.78
2023-10-11T21:10:24.108Z,100918.66
2023-10-11T21:12:27.961Z,100918.59
2023-10-11T21:14:31.725Z,100927.44
2023-10-11T21:16:36.241Z,100925.81
2023-10-11T21:18:40.653Z,100929.41
2023-10-11T21:20:46.391Z,100929.47
2023-10-11T21:22:50.080Z,100924.28
2023-10-11T21:24:55.785Z,100922.56
2023-10-11T21:27:01.126Z,100920.03
2023-10-11T21:29:04.833Z,100923.66
2023-10-11T21:31:16.301Z,100922.03
2023-10-11T21:33:20.893Z,100920.34
2023-10-11T21:35:24.944Z,100917.69
2023-10-11T21:37:28.599Z,100923.91
2023-10-11T21:39:32.341Z,100913.44
2023-10-11T21:41:36.414Z,100909.91
2023-10-11T21:43:41.848Z,100911.81
2023-10-11T21:45:45.591Z,100908.38
2023-10-11T21:47:49.499Z,100921.50
2023-10-11T21:49:53.164Z,100911.91
2023-10-11T21:51:56.767Z,100920.66
2023-10-11T21:54:00.460Z,100919.81
2023-10-11T21:56:04.076Z,100917.25
2023-10-11T21:58:10.644Z,100923.56
2023-10-11T22:00:24.568Z,100919.22
2023-10-11T22:02:32.289Z,100924.59
2023-10-11T22:04:37.140Z,100921.06
2023-10-11T22:06:41.210Z,100909.75
2023-10-11T22:08:49.744Z,100918.59
2023-10-11T22:10:54.152Z,100923.03
2023-10-11T22:12:58.777Z,100923.97
2023-10-11T22:15:06.570Z,100920.50
2023-10-11T22:17:11.512Z,100910.75
2023-10-11T22:19:16.792Z,100913.41
2023-10-11T22:21:20.481Z,100909.06
2023-10-11T22:23:24.195Z,100913.50
2023-10-11T22:25:28.219Z,100911.78
2023-10-11T22:27:31.983Z,100906.50
2023-10-11T22:29:38.972Z,100903.00
2023-10-11T22:31:42.736Z,100907.34
2023-10-11T22:33:46.765Z,100903.78
2023-10-11T22:35:52.778Z,100907.34
2023-10-11T22:37:56.855Z,100900.38
2023-10-11T22:40:00.852Z,100903.94
2023-10-11T22:42:07.626Z,100914.50
2023-10-11T22:44:11.521Z,100914.69
2023-10-11T22:46:15.124Z,100915.59
2023-10-11T22:48:21.130Z,100914.69
2023-10-11T22:50:26.457Z,100913.91
2023-10-11T22:52:30.093Z,100913.16
2023-10-11T22:54:33.934Z,100909.72
2023-10-11T22:56:38.319Z,100909.72
2023-10-11T22:58:41.940Z,100908.88
2023-10-11T23:00:44.624Z,100911.59
2023-10-11T23:02:50.712Z,100916.09
2023-10-11T23:04:55.532Z,100919.59
2023-10-11T23:07:00.585Z,100912.53
2023-10-11T23:09:05.083Z,100917.03
2023-10-11T23:11:17.791Z,100913.53
2023-10-11T23:13:23.594Z,100913.63
2023-10-11T23:15:35.244Z,100904.91
2023-10-11T23:17:41.812Z,100907.81
2023-10-11T23:19:44.586Z,100908.66
2023-10-11T23:21:48.652Z,100912.16
2023-10-11T23:23:55.386Z,100917.44
2023-10-11T23:25:59.435Z,100907.72
2023-10-11T23:28:07.202Z,100910.19
2023-10-11T23:30:13.301Z,100901.44
2023-10-11T23:32:17.831Z,100895.22
2023-10-11T23:34:26.433Z,100902.28
2023-10-11T23:36:36.934Z,100897.97
2023-10-11T23:38:46.054Z,100906.63
2023-10-11T23:40:50.031Z,100905.78
2023-10-11T23:42:59.091Z,100896.78
2023-10-11T23:45:03.390Z,100906.31
2023-10-11T23:47:24.256Z,100900.09
2023-10-11T23:51:41.065Z,100893.03
2023-10-11T23:53:47.898Z,100903.59
2023-10-11T23:55:56.276Z,100895.75
2023-10-11T23:58:13.457Z,100897.44
